createdAt,value
2022-10-09T00:03:24.720Z,4.08
2022-10-09T00:08:26.779Z,4.06
2022-10-09T00:13:28.517Z,3.98
2022-10-09T00:18:30.260Z,3.84
2022-10-09T00:23:32.564Z,3.74
2022-10-09T00:28:38.325Z,3.71
2022-10-09T00:33:40.722Z,3.67
2022-10-09T00:38:42.923Z,3.63
2022-10-09T00:43:49.246Z,3.58
2022-10-09T00:49:00.516Z,3.54
2022-10-09T00:54:05.369Z,3.50
2022-10-09T00:59:07.711Z,3.40
2022-10-09T01:04:09.766Z,3.30
2022-10-09T01:09:20.004Z,3.33
2022-10-09T01:14:29.058Z,3.28
2022-10-09T01:19:41.155Z,3.20
2022-10-09T01:25:01.734Z,3.11
2022-10-09T01:30:12.729Z,3.06
2022-10-09T01:35:17.024Z,3.08
2022-10-09T01:40:20.273Z,3.08
2022-10-09T01:45:22.142Z,3.08
2022-10-09T01:50:27.529Z,3.02
2022-10-09T01:55:29.419Z,2.98
2022-10-09T02:00:36.552Z,2.99
2022-10-09T02:05:41.334Z,2.99
2022-10-09T02:10:47.032Z,2.98
2022-10-09T02:15:53.342Z,2.86
2022-10-09T02:21:01.060Z,2.90
2022-10-09T02:26:03.123Z,3.03
2022-10-09T02:31:26.885Z,3.02
2022-10-09T02:36:32.387Z,3.05
2022-10-09T02:41:35.528Z,3.02
2022-10-09T02:46:38.598Z,3.09
2022-10-09T02:51:40.507Z,3.24
2022-10-09T02:56:42.598Z,3.21
2022-10-09T03:01:44.893Z,3.12
2022-10-09T03:06:46.760Z,2.98
2022-10-09T03:11:48.558Z,2.77
2022-10-09T03:16:50.340Z,2.60
2022-10-09T03:21:52.121Z,2.58
2022-10-09T03:26:53.961Z,2.50
2022-10-09T03:31:55.748Z,2.40
2022-10-09T03:36:57.454Z,2.30
2022-10-09T03:41:59.208Z,2.23
2022-10-09T03:47:01.051Z,2.29
2022-10-09T03:52:02.893Z,2.35
2022-10-09T03:57:04.681Z,2.32
2022-10-09T04:02:06.521Z,2.24
2022-10-09T04:07:08.276Z,2.14
2022-10-09T04:12:10.058Z,2.01
2022-10-09T04:17:11.815Z,1.86
2022-10-09T04:22:13.570Z,1.87
2022-10-09T04:27:15.427Z,1.97
2022-10-09T04:32:17.238Z,2.00
2022-10-09T04:37:18.951Z,2.05
2022-10-09T04:42:20.896Z,1.97
2022-10-09T04:47:22.751Z,1.97
2022-10-09T04:52:24.683Z,1.89
2022-10-09T04:57:26.405Z,1.78
2022-10-09T05:02:28.210Z,1.75
2022-10-09T05:07:30.058Z,1.68
2022-10-09T05:12:31.811Z,1.68
2022-10-09T05:17:33.679Z,1.66
2022-10-09T05:22:35.515Z,1.72
2022-10-09T05:27:37.548Z,1.70
2022-10-09T05:32:39.318Z,1.64
2022-10-09T05:37:44.612Z,1.59
2022-10-09T05:42:50.200Z,1.59
2022-10-09T05:47:52.417Z,1.69
2022-10-09T05:52:54.217Z,1.68
2022-10-09T05:57:56.110Z,1.79
2022-10-09T06:02:57.983Z,1.90
2022-10-09T06:07:59.736Z,1.96
2022-10-09T06:13:01.523Z,2.08
2022-10-09T06:18:03.324Z,2.28
2022-10-09T06:23:05.050Z,2.46
2022-10-09T06:28:06.842Z,2.60
2022-10-09T06:33:08.639Z,2.78
2022-10-09T06:38:10.711Z,3.01
2022-10-09T06:43:12.499Z,3.25
2022-10-09T06:48:14.308Z,3.50
2022-10-09T06:53:16.030Z,3.73
2022-10-09T06:58:17.770Z,3.95
2022-10-09T07:03:19.557Z,4.24
2022-10-09T07:08:21.299Z,4.53
2022-10-09T07:13:23.200Z,4.97
2022-10-09T07:18:24.902Z,5.33
2022-10-09T07:23:28.792Z,5.56
2022-10-09T07:28:30.768Z,5.78
2022-10-09T07:33:33.086Z,6.03
2022-10-09T07:38:35.165Z,6.31
2022-10-09T07:43:38.828Z,6.62
2022-10-09T07:48:41.032Z,6.87
2022-10-09T07:53:43.337Z,7.05
2022-10-09T07:58:56.668Z,7.27
2022-10-09T08:04:01.091Z,7.60
2022-10-09T08:09:05.372Z,7.90
2022-10-09T08:14:07.695Z,8.17
2022-10-09T08:19:09.710Z,8.49
2022-10-09T08:24:12.480Z,8.54
2022-10-09T08:29:16.065Z,8.90
2022-10-09T08:34:18.242Z,9.06
2022-10-09T08:39:20.018Z,9.49
2022-10-09T08:44:43.019Z,9.80
2022-10-09T08:49:59.370Z,10.10
2022-10-09T08:55:08.498Z,10.21
2022-10-09T09:00:21.881Z,10.75
2022-10-09T09:05:45.432Z,11.13
2022-10-09T09:10:55.301Z,11.46
2022-10-09T09:16:15.725Z,11.89
2022-10-09T09:21:34.196Z,11.85
2022-10-09T09:26:40.876Z,12.25
2022-10-09T09:31:43.672Z,12.08
2022-10-09T09:36:57.260Z,12.58
2022-10-09T09:42:20.162Z,12.57
2022-10-09T09:47:30.129Z,13.04
2022-10-09T09:52:41.131Z,12.56
2022-10-09T09:57:46.221Z,13.01
2022-10-09T10:03:02.286Z,13.60
2022-10-09T10:08:22.992Z,13.76
2022-10-09T10:13:38.272Z,13.09
2022-10-09T10:18:42.211Z,13.70
2022-10-09T10:23:50.070Z,13.98
2022-10-09T10:29:03.020Z,14.36
2022-10-09T10:34:07.708Z,13.76
2022-10-09T10:39:20.956Z,14.64
2022-10-09T10:44:47.491Z,14.92
2022-10-09T10:49:49.727Z,16.56
2022-10-09T10:55:03.533Z,19.14
2022-10-09T11:00:09.583Z,21.87
2022-10-09T11:05:17.211Z,21.65
2022-10-09T11:10:36.718Z,24.52
2022-10-09T11:16:16.041Z,21.74
2022-10-09T11:21:33.653Z,21.72
2022-10-09T11:27:03.394Z,22.84
2022-10-09T11:32:20.620Z,22.89
2022-10-09T11:37:27.281Z,23.06
2022-10-09T11:42:29.405Z,22.15
2022-10-09T11:47:37.576Z,21.01
2022-10-09T11:53:11.478Z,19.51
2022-10-09T11:58:16.403Z,21.92
2022-10-09T12:03:33.278Z,21.65
2022-10-09T12:08:36.557Z,20.20
2022-10-09T12:13:41.871Z,18.64
2022-10-09T12:18:47.816Z,20.40
2022-10-09T12:23:51.375Z,20.96
2022-10-09T12:28:56.672Z,18.91
2022-10-09T12:34:06.398Z,19.66
2022-10-09T12:39:34.556Z,22.97
2022-10-09T12:44:42.454Z,23.18
2022-10-09T12:49:57.863Z,25.13
2022-10-09T12:55:02.348Z,25.18
2022-10-09T13:00:05.467Z,24.68
2022-10-09T13:05:07.502Z,25.30
2022-10-09T13:10:22.324Z,24.94
2022-10-09T13:15:32.065Z,27.55
2022-10-09T13:20:33.895Z,30.82
2022-10-09T13:25:38.836Z,25.79
2022-10-09T13:30:40.645Z,24.10
2022-10-09T13:35:43.212Z,19.80
2022-10-09T13:40:45.060Z,18.05
2022-10-09T13:45:47.021Z,16.94
2022-10-09T13:50:48.942Z,16.21
2022-10-09T13:55:55.922Z,15.82
2022-10-09T14:00:59.056Z,15.41
2022-10-09T14:06:03.850Z,14.95
2022-10-09T14:11:06.121Z,14.73
2022-10-09T14:16:08.313Z,14.42
2022-10-09T14:21:15.798Z,14.51
2022-10-09T14:26:17.747Z,14.50
2022-10-09T14:31:19.941Z,14.27
2022-10-09T14:36:21.707Z,14.23
2022-10-09T14:41:23.488Z,13.86
2022-10-09T14:46:27.212Z,14.03
2022-10-09T14:51:31.559Z,13.75
2022-10-09T14:56:36.286Z,13.76
2022-10-09T15:01:38.264Z,13.75
2022-10-09T15:06:40.007Z,13.55
2022-10-09T15:11:41.801Z,13.48
2022-10-09T15:16:43.579Z,13.06
2022-10-09T15:21:45.322Z,12.94
2022-10-09T15:26:47.067Z,12.86
2022-10-09T15:31:51.472Z,12.60
2022-10-09T15:36:53.282Z,12.54
2022-10-09T15:41:55.040Z,12.35
2022-10-09T15:46:56.942Z,12.04
2022-10-09T15:51:58.775Z,11.63
2022-10-09T15:57:00.625Z,11.75
2022-10-09T16:02:02.415Z,11.77
2022-10-09T16:07:04.577Z,11.52
2022-10-09T16:12:06.317Z,11.10
2022-10-09T16:17:11.287Z,10.66
2022-10-09T16:22:13.327Z,10.31
2022-10-09T16:27:15.146Z,10.03
2022-10-09T16:32:16.961Z,9.83
2022-10-09T16:37:18.772Z,9.75
2022-10-09T16:42:20.863Z,9.55
2022-10-09T16:47:22.635Z,9.37
2022-10-09T16:52:24.407Z,9.15
2022-10-09T16:57:28.658Z,8.92
2022-10-09T17:02:30.508Z,8.78
2022-10-09T17:07:32.492Z,8.69
2022-10-09T17:12:34.401Z,8.49
2022-10-09T17:17:36.250Z,8.20
2022-10-09T17:22:39.707Z,7.97
2022-10-09T17:27:41.530Z,7.75
2022-10-09T17:32:43.464Z,7.64
2022-10-09T17:37:45.343Z,7.47
2022-10-09T17:42:47.325Z,7.39
2022-10-09T17:47:49.712Z,7.29
2022-10-09T17:52:51.819Z,7.14
2022-10-09T17:57:56.958Z,7.12
2022-10-09T18:02:58.759Z,6.95
2022-10-09T18:08:00.546Z,6.85
2022-10-09T18:13:02.518Z,6.62
2022-10-09T18:18:04.571Z,6.41
2022-10-09T18:23:07.970Z,6.31
2022-10-09T18:28:10.843Z,6.06
2022-10-09T18:33:13.000Z,5.80
2022-10-09T18:38:14.822Z,5.68
2022-10-09T18:43:16.597Z,5.59
2022-10-09T18:48:18.650Z,5.50
2022-10-09T18:53:20.468Z,5.59
2022-10-09T18:58:22.967Z,5.67
2022-10-09T19:03:24.821Z,5.60
2022-10-09T19:08:26.591Z,5.51
2022-10-09T19:13:28.510Z,5.55
2022-10-09T19:18:30.901Z,5.38
2022-10-09T19:23:35.543Z,5.37
2022-10-09T19:28:38.729Z,5.30
2022-10-09T19:33:42.062Z,5.14
2022-10-09T19:38:44.746Z,4.95
2022-10-09T19:43:46.515Z,4.87
2022-10-09T19:48:49.671Z,4.74
2022-10-09T19:53:55.021Z,4.64
2022-10-09T19:58:58.453Z,4.53
2022-10-09T20:04:03.005Z,4.32
2022-10-09T20:09:06.284Z,4.29
2022-10-09T20:14:09.787Z,4.28
2022-10-09T20:19:12.557Z,4.27
2022-10-09T20:24:14.376Z,4.20
2022-10-09T20:29:16.176Z,4.14
2022-10-09T20:34:18.065Z,4.10
2022-10-09T20:39:21.433Z,4.08
2022-10-09T20:44:23.365Z,4.13
2022-10-09T20:49:25.156Z,4.26
2022-10-09T20:54:26.936Z,4.35
2022-10-09T20:59:28.776Z,4.49
2022-10-09T21:04:31.614Z,4.53
2022-10-09T21:09:33.589Z,4.55
2022-10-09T21:14:36.644Z,4.46
2022-10-09T21:19:38.376Z,4.37
2022-10-09T21:24:40.146Z,4.38
2022-10-09T21:29:43.423Z,4.44
2022-10-09T21:34:45.842Z,4.59
2022-10-09T21:39:47.719Z,4.64
2022-10-09T21:44:49.520Z,4.72
2022-10-09T21:49:51.244Z,4.74
2022-10-09T21:54:52.997Z,4.69
2022-10-09T21:59:54.786Z,4.94
2022-10-09T22:04:57.377Z,5.00
2022-10-09T22:09:59.437Z,5.05
2022-10-09T22:15:01.273Z,5.09
2022-10-09T22:20:03.818Z,5.04
2022-10-09T22:25:06.223Z,5.03
2022-10-09T22:30:08.705Z,5.08
2022-10-09T22:35:10.519Z,5.19
2022-10-09T22:40:12.377Z,5.41
2022-10-09T22:45:14.153Z,5.68
2022-10-09T22:50:16.004Z,5.66
2022-10-09T22:55:17.872Z,5.53
2022-10-09T23:00:21.937Z,5.71
2022-10-09T23:05:24.385Z,5.79
2022-10-09T23:10:26.162Z,6.18
2022-10-09T23:15:27.972Z,6.14
2022-10-09T23:20:29.656Z,5.95
2022-10-09T23:25:31.458Z,5.92
2022-10-09T23:30:33.262Z,5.85
2022-10-09T23:35:40.218Z,6.56
2022-10-09T23:40:41.762Z,6.41
2022-10-09T23:45:43.304Z,6.29
2022-10-09T23:50:44.862Z,6.18
2022-10-09T23:55:46.747Z,6.32
